sensor_id;sensor_type;location;lat;lon;timestamp;P1;durP1;ratioP1;P2;durP2;ratioP2
39370;SDS011;25099;51.946;4.838;2022-11-20T00:03:53;17.38;;;11.15;;
39370;SDS011;25099;51.946;4.838;2022-11-20T00:06:21;14.30;;;10.35;;
39370;SDS011;25099;51.946;4.838;2022-11-20T00:08:47;19.00;;;10.90;;
39370;SDS011;25099;51.946;4.838;2022-11-20T00:11:17;15.63;;;9.98;;
39370;SDS011;25099;51.946;4.838;2022-11-20T00:13:44;14.70;;;10.15;;
39370;SDS011;25099;51.946;4.838;2022-11-20T00:16:10;13.70;;;10.05;;
39370;SDS011;25099;51.946;4.838;2022-11-20T00:18:37;17.35;;;10.13;;
39370;SDS011;25099;51.946;4.838;2022-11-20T00:21:03;18.10;;;9.93;;
39370;SDS011;25099;51.946;4.838;2022-11-20T00:23:33;17.75;;;10.15;;
39370;SDS011;25099;51.946;4.838;2022-11-20T00:26:05;16.55;;;10.52;;
39370;SDS011;25099;51.946;4.838;2022-11-20T00:28:32;15.70;;;10.10;;
39370;SDS011;25099;51.946;4.838;2022-11-20T00:31:16;17.83;;;10.82;;
39370;SDS011;25099;51.946;4.838;2022-11-20T00:33:43;20.20;;;10.77;;
39370;SDS011;25099;51.946;4.838;2022-11-20T00:36:10;16.98;;;10.75;;
39370;SDS011;25099;51.946;4.838;2022-11-20T00:38:37;16.77;;;11.50;;
39370;SDS011;25099;51.946;4.838;2022-11-20T00:41:04;19.50;;;11.95;;
39370;SDS011;25099;51.946;4.838;2022-11-20T00:43:31;16.55;;;11.65;;
39370;SDS011;25099;51.946;4.838;2022-11-20T00:48:23;18.00;;;11.15;;
39370;SDS011;25099;51.946;4.838;2022-11-20T00:50:48;18.08;;;11.20;;
39370;SDS011;25099;51.946;4.838;2022-11-20T00:53:14;16.58;;;11.88;;
39370;SDS011;25099;51.946;4.838;2022-11-20T00:55:39;19.33;;;11.30;;
39370;SDS011;25099;51.946;4.838;2022-11-20T00:58:05;17.13;;;10.63;;
39370;SDS011;25099;51.946;4.838;2022-11-20T01:00:31;16.98;;;10.32;;
39370;SDS011;25099;51.946;4.838;2022-11-20T01:02:56;16.48;;;10.75;;
39370;SDS011;25099;51.946;4.838;2022-11-20T01:05:22;16.73;;;11.02;;
39370;SDS011;25099;51.946;4.838;2022-11-20T01:07:47;16.20;;;10.90;;
39370;SDS011;25099;51.946;4.838;2022-11-20T01:10:13;24.55;;;14.77;;
39370;SDS011;25099;51.946;4.838;2022-11-20T01:12:39;29.88;;;17.70;;
39370;SDS011;25099;51.946;4.838;2022-11-20T01:15:04;26.02;;;16.30;;
39370;SDS011;25099;51.946;4.838;2022-11-20T01:17:31;21.70;;;14.73;;
39370;SDS011;25099;51.946;4.838;2022-11-20T01:19:56;18.88;;;12.80;;
39370;SDS011;25099;51.946;4.838;2022-11-20T01:22:22;19.63;;;13.85;;
39370;SDS011;25099;51.946;4.838;2022-11-20T01:24:48;19.67;;;12.80;;
39370;SDS011;25099;51.946;4.838;2022-11-20T01:27:13;17.60;;;11.40;;
39370;SDS011;25099;51.946;4.838;2022-11-20T01:29:39;18.05;;;11.65;;
39370;SDS011;25099;51.946;4.838;2022-11-20T01:32:04;18.15;;;10.98;;
39370;SDS011;25099;51.946;4.838;2022-11-20T01:34:30;19.20;;;11.23;;
39370;SDS011;25099;51.946;4.838;2022-11-20T01:36:56;15.00;;;11.23;;
39370;SDS011;25099;51.946;4.838;2022-11-20T01:39:22;16.00;;;10.20;;
39370;SDS011;25099;51.946;4.838;2022-11-20T01:41:50;18.95;;;12.07;;
39370;SDS011;25099;51.946;4.838;2022-11-20T01:52:42;16.40;;;11.32;;
39370;SDS011;25099;51.946;4.838;2022-11-20T01:55:21;15.60;;;10.50;;
39370;SDS011;25099;51.946;4.838;2022-11-20T01:57:50;19.70;;;10.57;;
39370;SDS011;25099;51.946;4.838;2022-11-20T02:00:17;18.63;;;10.52;;
39370;SDS011;25099;51.946;4.838;2022-11-20T02:02:46;20.88;;;11.02;;
39370;SDS011;25099;51.946;4.838;2022-11-20T02:07:47;18.55;;;10.57;;
39370;SDS011;25099;51.946;4.838;2022-11-20T02:10:14;16.60;;;10.98;;
39370;SDS011;25099;51.946;4.838;2022-11-20T02:12:40;17.17;;;10.98;;
39370;SDS011;25099;51.946;4.838;2022-11-20T02:15:24;16.98;;;10.85;;
39370;SDS011;25099;51.946;4.838;2022-11-20T02:17:49;15.52;;;10.38;;
39370;SDS011;25099;51.946;4.838;2022-11-20T02:20:15;15.23;;;10.05;;
39370;SDS011;25099;51.946;4.838;2022-11-20T02:25:24;16.30;;;10.38;;
39370;SDS011;25099;51.946;4.838;2022-11-20T02:27:52;15.18;;;10.90;;
39370;SDS011;25099;51.946;4.838;2022-11-20T02:30:18;15.18;;;9.05;;
39370;SDS011;25099;51.946;4.838;2022-11-20T02:32:44;17.70;;;11.43;;
39370;SDS011;25099;51.946;4.838;2022-11-20T02:35:35;20.25;;;10.75;;
39370;SDS011;25099;51.946;4.838;2022-11-20T02:37:56;18.25;;;9.85;;
39370;SDS011;25099;51.946;4.838;2022-11-20T02:40:24;16.95;;;10.20;;
39370;SDS011;25099;51.946;4.838;2022-11-20T02:42:53;15.95;;;10.68;;
39370;SDS011;25099;51.946;4.838;2022-11-20T02:45:19;18.27;;;11.38;;
39370;SDS011;25099;51.946;4.838;2022-11-20T02:47:45;18.60;;;9.23;;
39370;SDS011;25099;51.946;4.838;2022-11-20T02:50:11;16.35;;;9.73;;
39370;SDS011;25099;51.946;4.838;2022-11-20T02:52:37;18.20;;;10.55;;
39370;SDS011;25099;51.946;4.838;2022-11-20T02:55:02;16.67;;;10.63;;
39370;SDS011;25099;51.946;4.838;2022-11-20T02:57:28;14.77;;;9.65;;
39370;SDS011;25099;51.946;4.838;2022-11-20T02:59:54;15.55;;;10.07;;
39370;SDS011;25099;51.946;4.838;2022-11-20T03:02:19;16.80;;;10.75;;
39370;SDS011;25099;51.946;4.838;2022-11-20T03:04:45;15.38;;;10.30;;
39370;SDS011;25099;51.946;4.838;2022-11-20T03:07:11;16.13;;;11.10;;
39370;SDS011;25099;51.946;4.838;2022-11-20T03:09:36;18.45;;;11.02;;
39370;SDS011;25099;51.946;4.838;2022-11-20T03:12:02;16.35;;;9.43;;
39370;SDS011;25099;51.946;4.838;2022-11-20T03:14:28;19.27;;;11.13;;
39370;SDS011;25099;51.946;4.838;2022-11-20T03:16:53;17.02;;;11.13;;
39370;SDS011;25099;51.946;4.838;2022-11-20T03:19:19;16.95;;;10.55;;
39370;SDS011;25099;51.946;4.838;2022-11-20T03:21:45;16.38;;;11.13;;
39370;SDS011;25099;51.946;4.838;2022-11-20T03:24:14;15.95;;;11.15;;
39370;SDS011;25099;51.946;4.838;2022-11-20T03:26:40;18.55;;;11.80;;
39370;SDS011;25099;51.946;4.838;2022-11-20T03:29:05;17.55;;;11.35;;
39370;SDS011;25099;51.946;4.838;2022-11-20T03:31:32;14.75;;;10.02;;
39370;SDS011;25099;51.946;4.838;2022-11-20T03:34:01;15.60;;;10.70;;
39370;SDS011;25099;51.946;4.838;2022-11-20T03:36:28;18.33;;;10.90;;
39370;SDS011;25099;51.946;4.838;2022-11-20T03:38:54;20.88;;;11.32;;
39370;SDS011;25099;51.946;4.838;2022-11-20T03:41:22;17.67;;;11.50;;
39370;SDS011;25099;51.946;4.838;2022-11-20T03:43:50;17.48;;;11.52;;
39370;SDS011;25099;51.946;4.838;2022-11-20T03:46:17;16.67;;;10.90;;
39370;SDS011;25099;51.946;4.838;2022-11-20T03:48:42;15.82;;;10.40;;
39370;SDS011;25099;51.946;4.838;2022-11-20T03:53:35;17.33;;;10.82;;
39370;SDS011;25099;51.946;4.838;2022-11-20T03:56:00;20.75;;;11.07;;
39370;SDS011;25099;51.946;4.838;2022-11-20T03:58:26;17.30;;;10.20;;
39370;SDS011;25099;51.946;4.838;2022-11-20T04:00:52;14.98;;;11.25;;
39370;SDS011;25099;51.946;4.838;2022-11-20T04:03:17;18.73;;;11.63;;
39370;SDS011;25099;51.946;4.838;2022-11-20T04:05:43;20.70;;;10.85;;
39370;SDS011;25099;51.946;4.838;2022-11-20T04:08:09;15.77;;;10.98;;
39370;SDS011;25099;51.946;4.838;2022-11-20T04:10:34;17.52;;;11.25;;
39370;SDS011;25099;51.946;4.838;2022-11-20T04:13:00;15.05;;;10.35;;
39370;SDS011;25099;51.946;4.838;2022-11-20T04:15:25;16.80;;;10.30;;
39370;SDS011;25099;51.946;4.838;2022-11-20T04:17:51;16.75;;;9.88;;
39370;SDS011;25099;51.946;4.838;2022-11-20T04:20:16;17.42;;;10.77;;
39370;SDS011;25099;51.946;4.838;2022-11-20T04:22:42;19.15;;;10.98;;
39370;SDS011;25099;51.946;4.838;2022-11-20T04:25:08;18.27;;;10.25;;
39370;SDS011;25099;51.946;4.838;2022-11-20T04:27:33;19.02;;;10.05;;
39370;SDS011;25099;51.946;4.838;2022-11-20T04:29:59;18.27;;;11.75;;
39370;SDS011;25099;51.946;4.838;2022-11-20T04:32:24;20.90;;;11.60;;
39370;SDS011;25099;51.946;4.838;2022-11-20T04:34:50;19.20;;;10.38;;
39370;SDS011;25099;51.946;4.838;2022-11-20T04:37:15;23.73;;;13.52;;
39370;SDS011;25099;51.946;4.838;2022-11-20T04:39:41;18.00;;;11.65;;
39370;SDS011;25099;51.946;4.838;2022-11-20T04:42:08;22.05;;;12.50;;
39370;SDS011;25099;51.946;4.838;2022-11-20T04:44:53;19.60;;;11.48;;
39370;SDS011;25099;51.946;4.838;2022-11-20T04:47:18;20.67;;;12.15;;
39370;SDS011;25099;51.946;4.838;2022-11-20T04:49:44;20.83;;;12.32;;
39370;SDS011;25099;51.946;4.838;2022-11-20T04:52:10;18.08;;;11.93;;
39370;SDS011;25099;51.946;4.838;2022-11-20T04:54:35;19.65;;;11.40;;
39370;SDS011;25099;51.946;4.838;2022-11-20T04:57:01;17.67;;;11.77;;
39370;SDS011;25099;51.946;4.838;2022-11-20T04:59:27;20.77;;;12.23;;
39370;SDS011;25099;51.946;4.838;2022-11-20T05:01:52;23.23;;;12.88;;
39370;SDS011;25099;51.946;4.838;2022-11-20T05:04:18;20.92;;;11.55;;
39370;SDS011;25099;51.946;4.838;2022-11-20T05:06:43;19.88;;;12.75;;
39370;SDS011;25099;51.946;4.838;2022-11-20T05:09:10;21.52;;;12.20;;
39370;SDS011;25099;51.946;4.838;2022-11-20T05:11:36;23.05;;;12.82;;
39370;SDS011;25099;51.946;4.838;2022-11-20T05:14:02;18.45;;;12.32;;
39370;SDS011;25099;51.946;4.838;2022-11-20T05:16:27;20.90;;;12.63;;
39370;SDS011;25099;51.946;4.838;2022-11-20T05:18:53;22.25;;;11.98;;
39370;SDS011;25099;51.946;4.838;2022-11-20T05:21:19;22.48;;;12.00;;
39370;SDS011;25099;51.946;4.838;2022-11-20T05:23:45;17.65;;;11.57;;
39370;SDS011;25099;51.946;4.838;2022-11-20T05:26:12;19.20;;;13.55;;
39370;SDS011;25099;51.946;4.838;2022-11-20T05:28:39;20.17;;;12.80;;
39370;SDS011;25099;51.946;4.838;2022-11-20T05:31:06;25.58;;;14.45;;
39370;SDS011;25099;51.946;4.838;2022-11-20T05:33:42;20.15;;;12.68;;
39370;SDS011;25099;51.946;4.838;2022-11-20T05:36:09;22.02;;;11.88;;
39370;SDS011;25099;51.946;4.838;2022-11-20T05:38:35;17.85;;;11.68;;
39370;SDS011;25099;51.946;4.838;2022-11-20T05:41:08;17.52;;;10.60;;
39370;SDS011;25099;51.946;4.838;2022-11-20T05:43:40;16.75;;;11.25;;
39370;SDS011;25099;51.946;4.838;2022-11-20T05:46:08;16.77;;;11.10;;
39370;SDS011;25099;51.946;4.838;2022-11-20T05:48:35;16.50;;;11.52;;
39370;SDS011;25099;51.946;4.838;2022-11-20T05:51:03;16.30;;;11.05;;
39370;SDS011;25099;51.946;4.838;2022-11-20T05:53:29;17.88;;;10.38;;
39370;SDS011;25099;51.946;4.838;2022-11-20T05:55:57;15.23;;;10.63;;
39370;SDS011;25099;51.946;4.838;2022-11-20T05:58:22;22.00;;;12.90;;
39370;SDS011;25099;51.946;4.838;2022-11-20T06:00:48;17.52;;;11.95;;
39370;SDS011;25099;51.946;4.838;2022-11-20T06:03:13;17.80;;;12.25;;
39370;SDS011;25099;51.946;4.838;2022-11-20T06:05:39;19.83;;;11.93;;
39370;SDS011;25099;51.946;4.838;2022-11-20T06:08:04;18.23;;;12.38;;
39370;SDS011;25099;51.946;4.838;2022-11-20T06:10:30;21.80;;;11.77;;
39370;SDS011;25099;51.946;4.838;2022-11-20T06:12:57;20.75;;;11.15;;
39370;SDS011;25099;51.946;4.838;2022-11-20T06:15:23;22.48;;;13.77;;
39370;SDS011;25099;51.946;4.838;2022-11-20T06:17:51;22.58;;;14.15;;
39370;SDS011;25099;51.946;4.838;2022-11-20T06:20:18;24.95;;;14.48;;
39370;SDS011;25099;51.946;4.838;2022-11-20T06:22:43;19.98;;;12.50;;
39370;SDS011;25099;51.946;4.838;2022-11-20T06:25:09;25.83;;;13.52;;
39370;SDS011;25099;51.946;4.838;2022-11-20T06:27:34;24.45;;;14.38;;
39370;SDS011;25099;51.946;4.838;2022-11-20T06:30:00;23.17;;;13.50;;
39370;SDS011;25099;51.946;4.838;2022-11-20T06:32:32;24.17;;;13.70;;
39370;SDS011;25099;51.946;4.838;2022-11-20T06:34:58;23.92;;;14.43;;
39370;SDS011;25099;51.946;4.838;2022-11-20T06:37:23;22.27;;;13.00;;
39370;SDS011;25099;51.946;4.838;2022-11-20T06:39:49;27.00;;;13.98;;
39370;SDS011;25099;51.946;4.838;2022-11-20T06:42:14;24.38;;;12.40;;
39370;SDS011;25099;51.946;4.838;2022-11-20T06:44:40;21.73;;;13.40;;
39370;SDS011;25099;51.946;4.838;2022-11-20T06:47:05;21.38;;;13.68;;
39370;SDS011;25099;51.946;4.838;2022-11-20T06:49:31;23.27;;;13.85;;
39370;SDS011;25099;51.946;4.838;2022-11-20T06:51:57;22.80;;;13.32;;
39370;SDS011;25099;51.946;4.838;2022-11-20T06:54:22;24.77;;;14.68;;
39370;SDS011;25099;51.946;4.838;2022-11-20T06:56:48;22.70;;;13.82;;
39370;SDS011;25099;51.946;4.838;2022-11-20T06:59:13;21.75;;;13.77;;
39370;SDS011;25099;51.946;4.838;2022-11-20T07:01:39;25.60;;;14.32;;
39370;SDS011;25099;51.946;4.838;2022-11-20T07:04:05;25.85;;;14.13;;
39370;SDS011;25099;51.946;4.838;2022-11-20T07:06:30;21.45;;;13.57;;
39370;SDS011;25099;51.946;4.838;2022-11-20T07:08:56;25.25;;;14.27;;
39370;SDS011;25099;51.946;4.838;2022-11-20T07:11:24;31.48;;;16.73;;
39370;SDS011;25099;51.946;4.838;2022-11-20T07:13:50;26.27;;;14.38;;
39370;SDS011;25099;51.946;4.838;2022-11-20T07:16:16;24.60;;;14.30;;
39370;SDS011;25099;51.946;4.838;2022-11-20T07:18:42;30.00;;;16.33;;
39370;SDS011;25099;51.946;4.838;2022-11-20T07:21:08;22.38;;;13.88;;
39370;SDS011;25099;51.946;4.838;2022-11-20T07:23:35;28.67;;;16.25;;
39370;SDS011;25099;51.946;4.838;2022-11-20T07:26:08;21.83;;;14.20;;
39370;SDS011;25099;51.946;4.838;2022-11-20T07:28:35;25.15;;;15.43;;
39370;SDS011;25099;51.946;4.838;2022-11-20T07:31:01;26.73;;;16.00;;
39370;SDS011;25099;51.946;4.838;2022-11-20T07:33:27;27.35;;;15.95;;
39370;SDS011;25099;51.946;4.838;2022-11-20T07:35:52;23.17;;;14.73;;
39370;SDS011;25099;51.946;4.838;2022-11-20T07:38:18;25.70;;;15.07;;
39370;SDS011;25099;51.946;4.838;2022-11-20T07:40:43;25.80;;;15.85;;
39370;SDS011;25099;51.946;4.838;2022-11-20T07:43:09;24.95;;;14.98;;
39370;SDS011;25099;51.946;4.838;2022-11-20T07:45:35;24.23;;;13.63;;
39370;SDS011;25099;51.946;4.838;2022-11-20T07:48:00;23.42;;;14.43;;
39370;SDS011;25099;51.946;4.838;2022-11-20T07:50:26;26.55;;;14.25;;
39370;SDS011;25099;51.946;4.838;2022-11-20T07:53:04;26.80;;;15.85;;
39370;SDS011;25099;51.946;4.838;2022-11-20T07:55:32;23.00;;;14.63;;
39370;SDS011;25099;51.946;4.838;2022-11-20T07:57:58;24.23;;;14.80;;
39370;SDS011;25099;51.946;4.838;2022-11-20T08:00:24;23.63;;;15.80;;
39370;SDS011;25099;51.946;4.838;2022-11-20T08:02:51;27.83;;;16.55;;
39370;SDS011;25099;51.946;4.838;2022-11-20T08:05:16;25.08;;;14.95;;
39370;SDS011;25099;51.946;4.838;2022-11-20T08:07:42;24.98;;;15.90;;
39370;SDS011;25099;51.946;4.838;2022-11-20T08:10:09;25.65;;;15.05;;
39370;SDS011;25099;51.946;4.838;2022-11-20T08:12:42;23.63;;;14.38;;
39370;SDS011;25099;51.946;4.838;2022-11-20T08:15:28;24.48;;;14.98;;
39370;SDS011;25099;51.946;4.838;2022-11-20T08:17:58;24.27;;;15.32;;
39370;SDS011;25099;51.946;4.838;2022-11-20T08:20:27;22.52;;;15.10;;
39370;SDS011;25099;51.946;4.838;2022-11-20T08:22:56;24.83;;;15.15;;
39370;SDS011;25099;51.946;4.838;2022-11-20T08:25:23;24.80;;;15.88;;
39370;SDS011;25099;51.946;4.838;2022-11-20T08:27:49;23.33;;;14.73;;
39370;SDS011;25099;51.946;4.838;2022-11-20T08:30:14;25.05;;;14.70;;
39370;SDS011;25099;51.946;4.838;2022-11-20T08:32:40;24.60;;;14.30;;
39370;SDS011;25099;51.946;4.838;2022-11-20T08:35:05;28.83;;;14.98;;
39370;SDS011;25099;51.946;4.838;2022-11-20T08:37:31;22.58;;;14.57;;
39370;SDS011;25099;51.946;4.838;2022-11-20T08:39:57;23.10;;;15.10;;
39370;SDS011;25099;51.946;4.838;2022-11-20T08:42:23;24.60;;;15.10;;
39370;SDS011;25099;51.946;4.838;2022-11-20T08:44:49;22.63;;;13.85;;
39370;SDS011;25099;51.946;4.838;2022-11-20T08:47:14;21.88;;;14.60;;
39370;SDS011;25099;51.946;4.838;2022-11-20T08:49:40;28.73;;;15.75;;
39370;SDS011;25099;51.946;4.838;2022-11-20T08:52:05;24.95;;;15.75;;
39370;SDS011;25099;51.946;4.838;2022-11-20T08:54:31;28.98;;;16.42;;
39370;SDS011;25099;51.946;4.838;2022-11-20T08:56:56;29.98;;;16.50;;
39370;SDS011;25099;51.946;4.838;2022-11-20T08:59:22;29.02;;;17.23;;
39370;SDS011;25099;51.946;4.838;2022-11-20T09:01:48;29.35;;;16.40;;
39370;SDS011;25099;51.946;4.838;2022-11-20T09:04:13;24.65;;;16.27;;
39370;SDS011;25099;51.946;4.838;2022-11-20T09:06:39;24.58;;;15.38;;
39370;SDS011;25099;51.946;4.838;2022-11-20T09:09:05;25.10;;;15.00;;
39370;SDS011;25099;51.946;4.838;2022-11-20T09:11:31;23.08;;;15.73;;
39370;SDS011;25099;51.946;4.838;2022-11-20T09:13:56;25.83;;;15.73;;
39370;SDS011;25099;51.946;4.838;2022-11-20T09:16:22;25.15;;;15.55;;
39370;SDS011;25099;51.946;4.838;2022-11-20T09:18:49;33.90;;;19.02;;
39370;SDS011;25099;51.946;4.838;2022-11-20T09:21:15;34.53;;;19.42;;
39370;SDS011;25099;51.946;4.838;2022-11-20T09:23:41;35.72;;;20.27;;
39370;SDS011;25099;51.946;4.838;2022-11-20T09:26:11;33.92;;;18.20;;
39370;SDS011;25099;51.946;4.838;2022-11-20T09:28:37;35.45;;;19.95;;
39370;SDS011;25099;51.946;4.838;2022-11-20T09:31:11;36.95;;;20.10;;
39370;SDS011;25099;51.946;4.838;2022-11-20T09:33:50;35.97;;;20.42;;
39370;SDS011;25099;51.946;4.838;2022-11-20T09:36:16;32.08;;;18.02;;
39370;SDS011;25099;51.946;4.838;2022-11-20T09:38:43;27.35;;;16.48;;
39370;SDS011;25099;51.946;4.838;2022-11-20T09:41:17;28.50;;;17.88;;
39370;SDS011;25099;51.946;4.838;2022-11-20T09:47:07;26.00;;;15.88;;
39370;SDS011;25099;51.946;4.838;2022-11-20T09:53:16;27.42;;;16.85;;
39370;SDS011;25099;51.946;4.838;2022-11-20T09:56:00;26.88;;;16.30;;
39370;SDS011;25099;51.946;4.838;2022-11-20T09:58:32;25.35;;;16.90;;
39370;SDS011;25099;51.946;4.838;2022-11-20T10:01:03;25.40;;;16.13;;
39370;SDS011;25099;51.946;4.838;2022-11-20T10:06:29;26.58;;;17.00;;
39370;SDS011;25099;51.946;4.838;2022-11-20T10:11:38;30.48;;;18.15;;
39370;SDS011;25099;51.946;4.838;2022-11-20T10:22:09;26.27;;;16.60;;
39370;SDS011;25099;51.946;4.838;2022-11-20T10:30:14;30.45;;;18.15;;
39370;SDS011;25099;51.946;4.838;2022-11-20T10:32:43;29.75;;;18.10;;
39370;SDS011;25099;51.946;4.838;2022-11-20T10:37:44;28.42;;;17.92;;
39370;SDS011;25099;51.946;4.838;2022-11-20T10:47:56;30.58;;;18.88;;
39370;SDS011;25099;51.946;4.838;2022-11-20T10:50:35;30.25;;;19.05;;
39370;SDS011;25099;51.946;4.838;2022-11-20T10:53:08;30.02;;;19.48;;
39370;SDS011;25099;51.946;4.838;2022-11-20T10:55:58;32.28;;;19.02;;
39370;SDS011;25099;51.946;4.838;2022-11-20T10:58:37;31.95;;;19.02;;
39370;SDS011;25099;51.946;4.838;2022-11-20T11:01:20;38.88;;;19.98;;
39370;SDS011;25099;51.946;4.838;2022-11-20T11:03:50;32.53;;;20.00;;
39370;SDS011;25099;51.946;4.838;2022-11-20T11:09:00;35.92;;;20.85;;
39370;SDS011;25099;51.946;4.838;2022-11-20T11:11:30;38.28;;;21.80;;
39370;SDS011;25099;51.946;4.838;2022-11-20T11:14:08;35.28;;;21.23;;
39370;SDS011;25099;51.946;4.838;2022-11-20T11:16:54;39.47;;;20.75;;
39370;SDS011;25099;51.946;4.838;2022-11-20T11:19:21;44.33;;;22.13;;
39370;SDS011;25099;51.946;4.838;2022-11-20T11:21:47;35.75;;;20.88;;
39370;SDS011;25099;51.946;4.838;2022-11-20T11:24:23;36.15;;;20.77;;
39370;SDS011;25099;51.946;4.838;2022-11-20T11:26:58;38.78;;;22.25;;
39370;SDS011;25099;51.946;4.838;2022-11-20T11:29:24;39.83;;;21.65;;
39370;SDS011;25099;51.946;4.838;2022-11-20T11:32:02;38.85;;;20.77;;
39370;SDS011;25099;51.946;4.838;2022-11-20T11:34:29;37.80;;;22.00;;
39370;SDS011;25099;51.946;4.838;2022-11-20T11:36:58;46.13;;;24.23;;
39370;SDS011;25099;51.946;4.838;2022-11-20T11:39:26;39.00;;;23.30;;
39370;SDS011;25099;51.946;4.838;2022-11-20T11:41:53;45.00;;;25.27;;
39370;SDS011;25099;51.946;4.838;2022-11-20T11:47:05;42.55;;;22.70;;
39370;SDS011;25099;51.946;4.838;2022-11-20T11:49:36;43.00;;;24.48;;
39370;SDS011;25099;51.946;4.838;2022-11-20T11:52:08;41.65;;;23.48;;
39370;SDS011;25099;51.946;4.838;2022-11-20T11:54:43;41.13;;;23.58;;
39370;SDS011;25099;51.946;4.838;2022-11-20T11:57:16;44.83;;;23.20;;
39370;SDS011;25099;51.946;4.838;2022-11-20T12:00:09;47.80;;;24.70;;
39370;SDS011;25099;51.946;4.838;2022-11-20T12:08:25;46.20;;;24.70;;
39370;SDS011;25099;51.946;4.838;2022-11-20T12:13:21;48.13;;;25.38;;
39370;SDS011;25099;51.946;4.838;2022-11-20T12:16:01;40.75;;;22.80;;
39370;SDS011;25099;51.946;4.838;2022-11-20T12:18:28;51.58;;;26.30;;
39370;SDS011;25099;51.946;4.838;2022-11-20T12:29:32;49.05;;;25.08;;
39370;SDS011;25099;51.946;4.838;2022-11-20T12:35:16;50.97;;;23.95;;
39370;SDS011;25099;51.946;4.838;2022-11-20T12:57:57;46.13;;;23.67;;
39370;SDS011;25099;51.946;4.838;2022-11-20T13:00:29;45.25;;;23.92;;
39370;SDS011;25099;51.946;4.838;2022-11-20T13:08:08;49.95;;;26.55;;
39370;SDS011;25099;51.946;4.838;2022-11-20T13:10:52;55.80;;;27.42;;
39370;SDS011;25099;51.946;4.838;2022-11-20T13:13:31;51.13;;;26.42;;
39370;SDS011;25099;51.946;4.838;2022-11-20T13:18:47;59.92;;;27.25;;
39370;SDS011;25099;51.946;4.838;2022-11-20T13:21:55;61.53;;;29.27;;
39370;SDS011;25099;51.946;4.838;2022-11-20T13:24:04;56.30;;;26.88;;
39370;SDS011;25099;51.946;4.838;2022-11-20T13:26:46;62.85;;;28.45;;
39370;SDS011;25099;51.946;4.838;2022-11-20T13:29:16;60.63;;;27.17;;
39370;SDS011;25099;51.946;4.838;2022-11-20T13:31:44;54.15;;;26.67;;
39370;SDS011;25099;51.946;4.838;2022-11-20T13:34:12;53.28;;;27.73;;
39370;SDS011;25099;51.946;4.838;2022-11-20T13:36:51;59.58;;;28.83;;
39370;SDS011;25099;51.946;4.838;2022-11-20T13:39:25;60.88;;;27.42;;
39370;SDS011;25099;51.946;4.838;2022-11-20T13:42:03;63.05;;;28.13;;
39370;SDS011;25099;51.946;4.838;2022-11-20T13:44:50;66.80;;;28.13;;
39370;SDS011;25099;51.946;4.838;2022-11-20T13:47:25;61.60;;;29.80;;
39370;SDS011;25099;51.946;4.838;2022-11-20T13:49:52;63.22;;;28.38;;
39370;SDS011;25099;51.946;4.838;2022-11-20T13:58:19;66.97;;;29.75;;
39370;SDS011;25099;51.946;4.838;2022-11-20T14:01:29;69.53;;;29.17;;
39370;SDS011;25099;51.946;4.838;2022-11-20T14:03:40;65.75;;;29.20;;
39370;SDS011;25099;51.946;4.838;2022-11-20T14:06:10;68.63;;;28.88;;
39370;SDS011;25099;51.946;4.838;2022-11-20T14:08:50;67.07;;;30.02;;
39370;SDS011;25099;51.946;4.838;2022-11-20T14:11:17;67.43;;;31.63;;
39370;SDS011;25099;51.946;4.838;2022-11-20T14:16:21;65.90;;;29.88;;
39370;SDS011;25099;51.946;4.838;2022-11-20T14:18:47;68.75;;;29.13;;
39370;SDS011;25099;51.946;4.838;2022-11-20T14:21:34;67.55;;;30.88;;
39370;SDS011;25099;51.946;4.838;2022-11-20T14:24:05;64.55;;;28.67;;
39370;SDS011;25099;51.946;4.838;2022-11-20T14:26:31;76.28;;;32.83;;
39370;SDS011;25099;51.946;4.838;2022-11-20T14:28:58;77.18;;;30.83;;
39370;SDS011;25099;51.946;4.838;2022-11-20T14:31:25;78.13;;;31.55;;
39370;SDS011;25099;51.946;4.838;2022-11-20T14:33:55;71.07;;;31.25;;
39370;SDS011;25099;51.946;4.838;2022-11-20T14:36:22;73.82;;;31.67;;
39370;SDS011;25099;51.946;4.838;2022-11-20T14:38:50;77.20;;;33.20;;
39370;SDS011;25099;51.946;4.838;2022-11-20T14:41:23;78.00;;;33.83;;
39370;SDS011;25099;51.946;4.838;2022-11-20T14:43:56;77.05;;;32.75;;
39370;SDS011;25099;51.946;4.838;2022-11-20T14:46:23;73.25;;;32.25;;
39370;SDS011;25099;51.946;4.838;2022-11-20T14:48:50;82.40;;;33.55;;
39370;SDS011;25099;51.946;4.838;2022-11-20T14:51:28;73.43;;;33.10;;
39370;SDS011;25099;51.946;4.838;2022-11-20T14:53:56;74.78;;;33.72;;
39370;SDS011;25099;51.946;4.838;2022-11-20T14:56:55;85.78;;;36.00;;
39370;SDS011;25099;51.946;4.838;2022-11-20T14:59:24;79.43;;;36.45;;
39370;SDS011;25099;51.946;4.838;2022-11-20T15:01:58;80.28;;;34.47;;
39370;SDS011;25099;51.946;4.838;2022-11-20T15:07:31;77.65;;;33.78;;
39370;SDS011;25099;51.946;4.838;2022-11-20T15:10:04;78.25;;;35.10;;
39370;SDS011;25099;51.946;4.838;2022-11-20T15:12:32;81.47;;;36.30;;
39370;SDS011;25099;51.946;4.838;2022-11-20T15:15:01;72.55;;;32.78;;
39370;SDS011;25099;51.946;4.838;2022-11-20T15:17:28;72.13;;;32.58;;
39370;SDS011;25099;51.946;4.838;2022-11-20T15:19:55;75.28;;;33.60;;
39370;SDS011;25099;51.946;4.838;2022-11-20T15:22:21;68.35;;;32.97;;
39370;SDS011;25099;51.946;4.838;2022-11-20T15:24:46;74.47;;;31.42;;
39370;SDS011;25099;51.946;4.838;2022-11-20T15:27:12;80.00;;;34.40;;
39370;SDS011;25099;51.946;4.838;2022-11-20T15:29:37;67.97;;;32.15;;
39370;SDS011;25099;51.946;4.838;2022-11-20T15:32:03;71.25;;;33.95;;
39370;SDS011;25099;51.946;4.838;2022-11-20T15:34:29;73.88;;;33.42;;
39370;SDS011;25099;51.946;4.838;2022-11-20T15:36:54;74.93;;;31.85;;
39370;SDS011;25099;51.946;4.838;2022-11-20T15:39:20;70.88;;;32.80;;
39370;SDS011;25099;51.946;4.838;2022-11-20T15:41:46;78.40;;;32.15;;
39370;SDS011;25099;51.946;4.838;2022-11-20T15:44:12;75.13;;;32.75;;
39370;SDS011;25099;51.946;4.838;2022-11-20T15:46:39;69.03;;;32.53;;
39370;SDS011;25099;51.946;4.838;2022-11-20T15:49:11;74.43;;;33.28;;
39370;SDS011;25099;51.946;4.838;2022-11-20T15:51:46;69.38;;;32.08;;
39370;SDS011;25099;51.946;4.838;2022-11-20T15:54:14;72.60;;;32.72;;
39370;SDS011;25099;51.946;4.838;2022-11-20T15:56:43;76.68;;;33.75;;
39370;SDS011;25099;51.946;4.838;2022-11-20T15:59:08;70.95;;;34.05;;
39370;SDS011;25099;51.946;4.838;2022-11-20T16:01:34;70.32;;;33.42;;
39370;SDS011;25099;51.946;4.838;2022-11-20T16:04:04;84.53;;;35.78;;
39370;SDS011;25099;51.946;4.838;2022-11-20T16:06:33;78.00;;;33.80;;
39370;SDS011;25099;51.946;4.838;2022-11-20T16:08:59;72.63;;;34.35;;
39370;SDS011;25099;51.946;4.838;2022-11-20T16:11:24;77.50;;;35.53;;
39370;SDS011;25099;51.946;4.838;2022-11-20T16:13:50;78.10;;;35.03;;
39370;SDS011;25099;51.946;4.838;2022-11-20T16:16:35;75.22;;;35.30;;
39370;SDS011;25099;51.946;4.838;2022-11-20T16:19:02;69.68;;;35.65;;
39370;SDS011;25099;51.946;4.838;2022-11-20T16:21:28;68.45;;;32.53;;
39370;SDS011;25099;51.946;4.838;2022-11-20T16:24:07;71.10;;;32.92;;
39370;SDS011;25099;51.946;4.838;2022-11-20T16:26:35;75.38;;;32.53;;
39370;SDS011;25099;51.946;4.838;2022-11-20T16:29:02;76.07;;;33.28;;
39370;SDS011;25099;51.946;4.838;2022-11-20T16:31:29;77.57;;;34.92;;